Time;durP1;ratioP1;P1;durP2;ratioP2;P2;SDS_P1;SDS_P2;PMS_P1;PMS_P2;Temp;Humidity;BMP_temperature;BMP_pressure;BME280_temperature;BME280_humidity;BME280_pressure;Samples;Min_cycle;Max_cycle;Signal;HPM_P1;HPM_P2
2022/12/14 00:01:18;;;;;;;4.93;3.43;;;0.20;99.90;;;;;;4955001;28;20209;-73
2022/12/14 00:03:44;;;;;;;5.37;3.70;;;0.20;99.90;;;;;;4956992;28;20253;-72
2022/12/14 00:06:14;;;;;;;6.73;3.57;;;0.20;99.90;;;;;;4968768;28;20176;-72
2022/12/14 00:08:40;;;;;;;5.17;3.40;;;0.20;99.90;;;;;;4963603;28;20210;-71
2022/12/14 00:11:13;;;;;;;4.80;3.57;;;0.20;99.90;;;;;;4960906;28;20192;-72
2022/12/14 00:13:39;;;;;;;4.57;3.20;;;0.20;99.90;;;;;;4965820;28;20196;-72
2022/12/14 00:16:16;;;;;;;5.77;3.50;;;0.20;99.90;;;;;;4959981;28;20275;-73
2022/12/14 00:18:43;;;;;;;4.83;3.20;;;0.20;99.90;;;;;;4971270;28;20226;-72
2022/12/14 00:21:12;;;;;;;4.30;3.20;;;0.20;99.90;;;;;;4981010;28;20183;-72
2022/12/14 00:23:39;;;;;;;4.80;3.00;;;0.20;99.90;;;;;;4988752;28;20204;-72
2022/12/14 00:26:26;;;;;;;5.20;3.20;;;0.20;99.90;;;;;;4978748;28;20172;-72
2022/12/14 00:28:54;;;;;;;5.17;3.00;;;0.20;99.90;;;;;;4969419;28;20298;-71
2022/12/14 00:31:20;;;;;;;6.17;3.60;;;0.20;99.90;;;;;;4962126;28;20267;-72
2022/12/14 00:33:49;;;;;;;4.27;3.20;;;0.20;99.90;;;;;;4970917;28;20184;-72
2022/12/14 00:36:17;;;;;;;4.40;3.00;;;0.20;99.90;;;;;;4974659;28;20252;-72
2022/12/14 00:38:45;;;;;;;4.77;3.00;;;0.10;99.90;;;;;;4949345;28;20272;-72
2022/12/14 00:41:12;;;;;;;4.27;3.23;;;0.10;99.90;;;;;;4958816;28;20207;-73
2022/12/14 00:43:37;;;;;;;4.70;3.17;;;0.10;99.90;;;;;;4962364;28;20168;-72
2022/12/14 00:46:03;;;;;;;5.07;3.20;;;0.10;99.90;;;;;;4961497;28;20199;-72
2022/12/14 00:48:34;;;;;;;4.50;3.10;;;0.10;99.90;;;;;;4958283;28;20203;-72
2022/12/14 00:50:59;;;;;;;4.10;2.70;;;0.10;99.90;;;;;;4977991;28;20184;-73
2022/12/14 00:53:30;;;;;;;5.70;3.27;;;0.30;99.90;;;;;;4956909;28;20205;-72
2022/12/14 00:55:56;;;;;;;4.70;3.07;;;0.10;99.90;;;;;;4956586;28;20184;-73
2022/12/14 00:58:26;;;;;;;5.27;3.23;;;0.10;99.90;;;;;;4960965;28;20283;-72
2022/12/14 01:01:08;;;;;;;4.30;2.73;;;0.10;99.90;;;;;;4964218;28;20177;-72
2022/12/14 01:03:34;;;;;;;5.23;3.03;;;0.10;99.90;;;;;;4942607;29;20195;-72
2022/12/14 01:06:00;;;;;;;5.13;3.50;;;0.10;99.90;;;;;;4959207;28;20176;-73
2022/12/14 01:08:34;;;;;;;7.13;3.23;;;0.10;99.90;;;;;;4960755;28;20363;-73
2022/12/14 01:11:04;;;;;;;5.40;3.50;;;0.10;99.90;;;;;;4960722;28;20276;-72
2022/12/14 01:13:31;;;;;;;5.27;3.43;;;0.10;99.90;;;;;;4956502;28;20172;-73
2022/12/14 01:16:08;;;;;;;5.23;3.57;;;0.10;99.90;;;;;;4964019;28;20183;-72
2022/12/14 01:18:38;;;;;;;5.60;3.60;;;0.10;99.90;;;;;;4968158;28;20209;-72
2022/12/14 01:21:14;;;;;;;5.73;3.23;;;0.10;99.90;;;;;;4956484;28;20180;-73
2022/12/14 01:23:43;;;;;;;3.97;3.10;;;0.10;99.90;;;;;;4964173;28;20172;-73
2022/12/14 01:26:09;;;;;;;6.13;3.63;;;0.10;99.90;;;;;;4966090;28;20207;-73
2022/12/14 01:28:37;;;;;;;8.93;4.20;;;0.10;99.90;;;;;;4956823;28;20184;-73
2022/12/14 01:31:15;;;;;;;5.90;3.90;;;0.20;99.90;;;;;;4973493;28;20191;-73
2022/12/14 01:33:44;;;;;;;7.63;4.67;;;0.20;99.90;;;;;;4962756;28;20195;-73
2022/12/14 01:36:17;;;;;;;5.90;4.13;;;0.20;99.90;;;;;;4959763;28;20255;-74
2022/12/14 01:38:44;;;;;;;6.67;4.13;;;0.20;99.90;;;;;;4977171;28;20541;-73
2022/12/14 01:41:24;;;;;;;6.43;3.77;;;0.20;99.90;;;;;;4966911;28;20209;-73
2022/12/14 01:44:14;;;;;;;5.50;3.87;;;0.20;99.90;;;;;;4956316;28;20172;-73
2022/12/14 01:46:56;;;;;;;5.87;3.80;;;0.20;99.90;;;;;;4915474;28;20255;-73
2022/12/14 01:49:32;;;;;;;4.90;3.60;;;0.20;99.90;;;;;;4960816;28;20188;-72
2022/12/14 01:52:25;;;;;;;4.67;3.23;;;0.20;99.90;;;;;;4956063;29;20210;-73
2022/12/14 01:54:57;;;;;;;5.40;3.90;;;0.20;99.90;;;;;;4954929;28;20215;-72
2022/12/14 01:57:31;;;;;;;6.33;3.47;;;0.20;99.90;;;;;;4957626;28;20181;-73
2022/12/14 01:59:58;;;;;;;4.73;3.43;;;0.20;99.90;;;;;;4957227;28;20172;-73
2022/12/14 02:02:25;;;;;;;5.80;3.37;;;0.20;99.90;;;;;;4964048;28;20252;-73
2022/12/14 02:04:58;;;;;;;3.83;3.27;;;0.30;99.90;;;;;;4948153;28;20176;-73
2022/12/14 02:07:27;;;;;;;6.00;3.47;;;0.20;99.90;;;;;;4965607;28;20217;-73
2022/12/14 02:09:59;;;;;;;4.93;3.37;;;0.30;99.90;;;;;;4967682;28;20251;-74
2022/12/14 02:12:32;;;;;;;4.60;3.00;;;0.20;99.90;;;;;;4968607;28;20188;-73
2022/12/14 02:14:59;;;;;;;4.60;3.00;;;0.30;99.90;;;;;;4947341;28;20192;-73
2022/12/14 02:17:27;;;;;;;3.87;2.60;;;0.30;99.90;;;;;;4959735;28;20282;-73
2022/12/14 02:19:59;;;;;;;4.27;2.87;;;0.20;99.90;;;;;;4959998;28;20260;-73
2022/12/14 02:22:46;;;;;;;4.97;2.87;;;0.20;99.90;;;;;;4972375;28;20187;-73
2022/12/14 02:25:39;;;;;;;3.10;2.20;;;0.20;99.90;;;;;;4964723;28;20184;-73
2022/12/14 02:28:23;;;;;;;3.13;2.50;;;0.20;99.90;;;;;;4958299;28;20230;-73
2022/12/14 02:31:03;;;;;;;3.50;2.40;;;0.20;99.90;;;;;;4946416;28;20177;-74
2022/12/14 02:33:47;;;;;;;3.17;2.27;;;0.20;99.90;;;;;;4958496;28;20258;-73
2022/12/14 02:36:24;;;;;;;4.27;2.93;;;0.20;99.90;;;;;;4949150;28;20279;-73
2022/12/14 02:39:05;;;;;;;4.43;2.77;;;0.20;99.90;;;;;;4958794;28;20282;-73
2022/12/14 02:41:47;;;;;;;3.37;2.23;;;0.20;99.90;;;;;;4962172;28;20347;-71
2022/12/14 02:44:39;;;;;;;3.60;2.37;;;0.10;99.90;;;;;;4945765;28;20206;-72
2022/12/14 02:47:20;;;;;;;3.13;2.40;;;0.10;99.90;;;;;;4957337;28;20184;-72
2022/12/14 02:50:07;;;;;;;4.57;2.50;;;0.10;99.90;;;;;;4962704;28;20219;-72
2022/12/14 02:52:42;;;;;;;4.10;2.60;;;0.10;99.90;;;;;;4952232;28;20283;-72
2022/12/14 02:55:34;;;;;;;3.50;2.20;;;0.00;99.90;;;;;;4955701;29;20199;-72
2022/12/14 02:58:26;;;;;;;4.07;2.47;;;0.00;99.90;;;;;;4958202;28;20226;-71
2022/12/14 03:00:54;;;;;;;3.80;2.40;;;0.00;99.90;;;;;;4953557;28;20203;-72
2022/12/14 03:03:20;;;;;;;3.70;2.50;;;0.00;99.90;;;;;;4958487;28;20432;-71
2022/12/14 03:05:57;;;;;;;5.13;3.23;;;0.00;99.90;;;;;;4960689;28;20191;-72
2022/12/14 03:08:25;;;;;;;3.70;2.53;;;0.00;99.90;;;;;;4973467;28;20190;-72
2022/12/14 03:11:04;;;;;;;3.87;2.80;;;0.00;99.90;;;;;;4959940;28;20198;-71
2022/12/14 03:13:33;;;;;;;3.53;2.60;;;0.00;99.90;;;;;;4954611;28;20217;-72
2022/12/14 03:16:18;;;;;;;3.83;2.23;;;0.00;99.90;;;;;;4958652;28;20219;-72
2022/12/14 03:18:59;;;;;;;3.40;2.50;;;0.00;99.90;;;;;;4967168;28;20203;-72
2022/12/14 03:21:32;;;;;;;3.33;2.40;;;0.00;99.90;;;;;;4960448;28;20184;-72
2022/12/14 03:24:01;;;;;;;3.37;2.20;;;0.00;99.90;;;;;;4953552;28;20183;-72
2022/12/14 03:26:46;;;;;;;3.07;2.10;;;0.00;99.90;;;;;;4959856;28;20491;-72
2022/12/14 03:29:20;;;;;;;3.47;2.60;;;0.00;99.90;;;;;;4960261;28;20200;-72
2022/12/14 03:31:57;;;;;;;4.07;2.47;;;0.10;99.90;;;;;;4952676;29;20188;-72
2022/12/14 03:34:31;;;;;;;4.23;2.67;;;0.00;99.90;;;;;;4952928;28;20279;-72
2022/12/14 03:37:14;;;;;;;2.67;2.00;;;0.00;99.90;;;;;;4956588;28;20210;-73
2022/12/14 03:39:42;;;;;;;2.97;2.20;;;0.00;99.90;;;;;;4957871;28;20211;-72
2022/12/14 03:42:25;;;;;;;3.80;2.60;;;0.00;99.90;;;;;;4959639;28;20210;-72
2022/12/14 03:45:10;;;;;;;3.43;2.33;;;0.00;99.90;;;;;;4966239;28;20193;-72
2022/12/14 03:48:03;;;;;;;3.37;2.40;;;0.00;99.90;;;;;;4950904;28;20188;-72
2022/12/14 03:50:39;;;;;;;2.97;2.27;;;0.00;99.90;;;;;;4952645;28;20215;-72
2022/12/14 03:53:17;;;;;;;4.13;2.60;;;0.10;99.90;;;;;;4957560;28;20199;-72
2022/12/14 03:56:23;;;;;;;3.53;2.50;;;0.10;99.90;;;;;;4956215;28;20286;-72
2022/12/14 03:59:07;;;;;;;3.03;2.47;;;0.10;99.90;;;;;;4910074;28;20288;-72
2022/12/14 04:01:42;;;;;;;3.03;2.13;;;0.10;99.90;;;;;;4959463;28;20185;-72
2022/12/14 04:04:23;;;;;;;2.80;2.00;;;0.10;99.90;;;;;;4972400;28;20203;-72
2022/12/14 04:07:03;;;;;;;3.97;2.30;;;0.10;99.90;;;;;;4955425;28;20203;-72
2022/12/14 04:09:49;;;;;;;3.53;2.27;;;0.10;99.90;;;;;;4964515;28;20180;-72
2022/12/14 04:21:14;;;;;;;2.97;2.27;;;0.20;99.90;;;;;;4977199;28;20219;-72
2022/12/14 04:26:35;;;;;;;3.67;2.30;;;0.20;99.90;;;;;;4961968;28;20196;-72
2022/12/14 04:32:26;;;;;;;3.67;2.50;;;0.30;99.90;;;;;;4973059;28;20230;-72
2022/12/14 04:35:05;;;;;;;4.10;2.90;;;0.30;99.90;;;;;;4960289;28;20432;-71
2022/12/14 04:37:33;;;;;;;4.07;2.70;;;0.30;99.90;;;;;;4961629;28;20214;-72
2022/12/14 04:40:09;;;;;;;4.00;2.47;;;0.30;99.90;;;;;;4961111;28;20199;-72
2022/12/14 04:42:43;;;;;;;6.27;2.80;;;0.30;99.90;;;;;;4950860;28;20184;-72
2022/12/14 04:45:21;;;;;;;3.47;2.60;;;0.40;99.90;;;;;;4959514;28;20207;-72
2022/12/14 04:47:54;;;;;;;4.10;2.90;;;0.40;99.90;;;;;;4956738;28;20184;-72
2022/12/14 04:50:34;;;;;;;3.97;2.90;;;0.40;99.90;;;;;;4962494;28;20196;-72
2022/12/14 04:53:07;;;;;;;4.87;3.03;;;0.40;99.90;;;;;;4962428;28;20333;-72
2022/12/14 04:55:45;;;;;;;3.53;2.43;;;0.40;99.90;;;;;;4955676;28;20212;-72
2022/12/14 04:58:10;;;;;;;4.50;3.00;;;0.40;99.90;;;;;;4958033;28;20212;-72
2022/12/14 05:00:47;;;;;;;3.77;2.70;;;0.40;99.90;;;;;;4959326;28;20247;-72
2022/12/14 05:03:26;;;;;;;5.13;3.00;;;0.50;99.90;;;;;;4961100;28;20203;-72
2022/12/14 05:06:07;;;;;;;4.23;2.97;;;0.50;99.90;;;;;;4962155;28;20398;-72
2022/12/14 05:09:00;;;;;;;4.17;2.93;;;0.60;99.90;;;;;;4982179;28;20214;-72
2022/12/14 05:11:34;;;;;;;5.23;3.60;;;0.50;99.90;;;;;;4957379;28;20235;-72
2022/12/14 05:14:01;;;;;;;4.10;2.80;;;0.50;99.90;;;;;;4956990;28;20192;-71
2022/12/14 05:16:28;;;;;;;4.57;3.00;;;0.50;99.90;;;;;;4973091;28;20195;-72
2022/12/14 05:18:54;;;;;;;5.07;2.80;;;0.50;99.90;;;;;;4963181;28;20191;-72
2022/12/14 05:24:06;;;;;;;4.50;2.90;;;0.50;99.90;;;;;;4975191;28;20182;-72
2022/12/14 05:26:32;;;;;;;5.87;3.90;;;0.50;99.90;;;;;;4965830;28;20164;-71
2022/12/14 05:28:58;;;;;;;5.43;3.70;;;0.50;99.90;;;;;;4968474;28;20204;-72
2022/12/14 05:31:24;;;;;;;5.60;3.73;;;0.60;99.90;;;;;;4958856;28;20176;-72
2022/12/14 05:33:52;;;;;;;5.17;3.30;;;0.50;99.90;;;;;;4961904;28;20186;-72
2022/12/14 05:36:18;;;;;;;5.27;3.33;;;0.50;99.90;;;;;;4960753;28;20187;-72
2022/12/14 05:38:46;;;;;;;5.53;3.03;;;0.50;99.90;;;;;;4961705;28;20196;-72
2022/12/14 05:41:13;;;;;;;4.90;3.50;;;0.50;99.90;;;;;;4964277;28;20299;-72
2022/12/14 05:43:38;;;;;;;5.13;3.20;;;0.50;99.90;;;;;;4957946;28;20172;-72
2022/12/14 05:46:08;;;;;;;3.97;2.73;;;0.50;99.90;;;;;;4961240;28;20180;-71
2022/12/14 05:48:34;;;;;;;5.10;3.10;;;0.50;99.90;;;;;;4965084;28;20176;-72
2022/12/14 05:51:12;;;;;;;5.67;3.53;;;0.50;99.90;;;;;;4967369;28;20180;-76
2022/12/14 05:53:39;;;;;;;4.47;3.40;;;0.60;99.90;;;;;;4969377;28;20183;-73
2022/12/14 05:56:06;;;;;;;5.63;3.50;;;0.60;99.90;;;;;;4968518;28;20176;-74
2022/12/14 05:58:35;;;;;;;6.97;3.73;;;0.60;99.90;;;;;;4971677;28;20207;-73
2022/12/14 06:01:07;;;;;;;4.80;3.20;;;0.50;99.90;;;;;;4966785;28;20204;-73
2022/12/14 06:03:38;;;;;;;4.90;3.60;;;0.50;99.90;;;;;;4968012;28;20204;-73
2022/12/14 06:06:08;;;;;;;7.50;4.10;;;0.60;99.90;;;;;;4958953;28;20208;-73
2022/12/14 06:08:39;;;;;;;4.27;3.23;;;0.60;99.90;;;;;;4962415;28;20184;-72
2022/12/14 06:11:09;;;;;;;4.30;3.40;;;0.60;99.90;;;;;;4960727;28;20187;-72
2022/12/14 06:13:35;;;;;;;4.80;3.23;;;0.60;99.90;;;;;;4959685;28;20192;-72
2022/12/14 06:16:07;;;;;;;5.07;3.40;;;0.60;99.90;;;;;;4949266;28;20247;-73
2022/12/14 06:18:33;;;;;;;5.93;3.67;;;0.60;99.90;;;;;;4959745;28;20214;-73
2022/12/14 06:21:02;;;;;;;4.90;3.60;;;0.60;99.90;;;;;;4966113;28;20191;-73
2022/12/14 06:23:27;;;;;;;5.33;3.60;;;0.60;99.90;;;;;;4961314;28;20255;-73
2022/12/14 06:25:56;;;;;;;5.30;3.23;;;0.60;99.90;;;;;;4962395;28;20180;-73
2022/12/14 06:28:24;;;;;;;4.50;3.10;;;0.60;99.90;;;;;;4959186;28;20299;-73
2022/12/14 06:30:50;;;;;;;4.70;3.63;;;0.70;99.90;;;;;;4962977;28;20239;-72
2022/12/14 06:33:15;;;;;;;10.80;6.23;;;0.70;99.90;;;;;;4966435;28;20287;-74
2022/12/14 06:35:43;;;;;;;7.60;4.50;;;0.70;99.90;;;;;;4960865;28;20200;-73
2022/12/14 06:38:09;;;;;;;5.77;3.87;;;0.70;99.90;;;;;;4957534;28;20220;-73
2022/12/14 06:40:35;;;;;;;5.00;3.23;;;0.80;99.90;;;;;;4959913;28;20184;-73
2022/12/14 06:43:01;;;;;;;4.37;3.27;;;0.80;99.90;;;;;;4961878;28;20194;-72
2022/12/14 06:45:32;;;;;;;4.00;2.80;;;0.80;99.90;;;;;;4958776;28;20268;-74
2022/12/14 06:48:02;;;;;;;4.67;3.20;;;0.80;99.90;;;;;;4957259;28;20185;-73
2022/12/14 06:50:30;;;;;;;4.83;3.00;;;0.80;99.90;;;;;;4960165;28;20175;-73
2022/12/14 06:52:58;;;;;;;6.37;4.50;;;0.80;99.90;;;;;;4961363;28;20400;-74
2022/12/14 06:55:24;;;;;;;6.33;3.83;;;0.80;99.90;;;;;;4959170;28;20198;-73
2022/12/14 06:57:55;;;;;;;4.90;3.17;;;0.80;99.90;;;;;;4959555;28;20278;-73
2022/12/14 07:00:25;;;;;;;5.03;3.07;;;0.90;99.90;;;;;;4972489;28;20195;-73
2022/12/14 07:02:50;;;;;;;4.57;2.97;;;0.90;99.90;;;;;;4952664;28;20177;-73
2022/12/14 07:05:18;;;;;;;4.70;2.80;;;0.90;99.90;;;;;;4958634;28;20176;-73
2022/12/14 07:07:46;;;;;;;4.13;3.00;;;0.90;99.90;;;;;;4959511;28;20180;-72
2022/12/14 07:10:14;;;;;;;5.03;3.53;;;0.90;99.90;;;;;;4957788;28;20173;-73
2022/12/14 07:12:40;;;;;;;6.23;3.80;;;0.90;99.90;;;;;;4957964;28;20176;-73
2022/12/14 07:15:06;;;;;;;5.00;3.93;;;0.90;99.90;;;;;;4959629;28;20195;-73
2022/12/14 07:17:34;;;;;;;6.13;4.10;;;0.90;99.90;;;;;;4962650;28;20327;-73
2022/12/14 07:20:00;;;;;;;5.27;3.60;;;0.90;99.90;;;;;;4958817;28;20511;-73
2022/12/14 07:22:28;;;;;;;5.27;3.60;;;1.00;99.90;;;;;;4971137;28;20277;-73
2022/12/14 07:24:55;;;;;;;5.10;3.30;;;1.00;99.90;;;;;;4964250;28;20216;-73
2022/12/14 07:27:22;;;;;;;5.50;3.20;;;1.00;99.90;;;;;;4962231;28;20187;-73
2022/12/14 07:29:51;;;;;;;3.67;3.00;;;1.00;99.90;;;;;;4970127;28;20187;-73
2022/12/14 07:32:16;;;;;;;5.17;3.00;;;1.00;99.90;;;;;;4960612;28;20299;-78
2022/12/14 07:34:42;;;;;;;5.30;3.23;;;1.20;99.90;;;;;;4964572;28;20327;-76
2022/12/14 07:37:12;;;;;;;5.00;3.03;;;1.00;99.90;;;;;;4961631;28;20183;-76
2022/12/14 07:39:40;;;;;;;5.20;3.40;;;1.10;99.90;;;;;;4956368;28;20234;-75
2022/12/14 07:42:05;;;;;;;3.97;2.83;;;1.00;99.90;;;;;;4962478;28;20203;-78
2022/12/14 07:44:36;;;;;;;4.20;2.73;;;1.00;99.90;;;;;;4963642;28;20177;-78
2022/12/14 07:47:01;;;;;;;4.20;2.90;;;1.10;99.90;;;;;;4965284;28;20200;-76
2022/12/14 07:49:27;;;;;;;5.57;3.37;;;1.10;99.90;;;;;;4961873;28;20183;-75
2022/12/14 07:51:57;;;;;;;3.87;2.70;;;1.00;99.90;;;;;;4963116;28;20188;-77
2022/12/14 07:54:25;;;;;;;3.93;3.00;;;1.00;99.90;;;;;;4965350;28;20203;-75
2022/12/14 07:56:53;;;;;;;3.90;3.00;;;1.00;99.90;;;;;;4966405;28;20180;-74
2022/12/14 07:59:21;;;;;;;4.23;2.90;;;1.10;99.90;;;;;;4964459;28;20215;-75
2022/12/14 08:01:46;;;;;;;4.43;2.93;;;1.00;99.90;;;;;;4976748;28;20210;-74
2022/12/14 08:04:17;;;;;;;4.50;3.00;;;1.00;99.90;;;;;;4975227;28;20180;-74
2022/12/14 08:06:47;;;;;;;4.33;3.00;;;1.00;99.90;;;;;;4967752;28;20172;-74
2022/12/14 08:09:16;;;;;;;5.20;3.13;;;1.10;99.90;;;;;;4959063;28;20266;-74
2022/12/14 08:11:44;;;;;;;4.73;3.30;;;1.10;99.90;;;;;;4955524;28;20247;-75
2022/12/14 08:14:18;;;;;;;7.57;3.80;;;1.00;99.90;;;;;;4959652;28;20191;-75
2022/12/14 08:16:47;;;;;;;6.40;3.93;;;1.10;99.90;;;;;;4969669;28;20267;-76
2022/12/14 08:19:13;;;;;;;6.77;3.67;;;1.10;99.90;;;;;;4961335;28;20215;-74
2022/12/14 08:21:40;;;;;;;5.27;3.60;;;1.10;99.90;;;;;;4973802;28;20171;-74
2022/12/14 08:24:08;;;;;;;5.17;3.23;;;1.10;99.90;;;;;;4972328;28;20211;-74
2022/12/14 08:26:34;;;;;;;6.37;3.93;;;1.10;99.90;;;;;;4954561;28;20199;-74
2022/12/14 08:29:02;;;;;;;5.93;4.00;;;1.10;99.90;;;;;;4970381;28;20281;-74
2022/12/14 08:31:28;;;;;;;5.07;3.40;;;1.10;99.90;;;;;;4961299;28;20180;-75
2022/12/14 08:33:54;;;;;;;5.63;3.53;;;1.10;99.90;;;;;;4970690;28;20179;-74
2022/12/14 08:36:28;;;;;;;6.67;3.80;;;1.10;99.90;;;;;;4972719;28;20214;-75
2022/12/14 08:38:59;;;;;;;5.17;3.27;;;1.10;99.90;;;;;;4967312;28;20286;-74
2022/12/14 08:41:26;;;;;;;4.00;3.33;;;1.10;99.90;;;;;;4972657;28;20187;-74
2022/12/14 08:43:54;;;;;;;8.70;3.60;;;1.10;99.90;;;;;;4969735;28;20178;-74
2022/12/14 08:46:23;;;;;;;5.13;3.43;;;1.10;99.90;;;;;;4961161;28;20176;-74
2022/12/14 08:48:51;;;;;;;7.03;4.57;;;1.10;99.90;;;;;;4974374;28;20176;-74
2022/12/14 08:51:17;;;;;;;5.27;3.70;;;1.10;99.90;;;;;;4961004;28;20187;-75
2022/12/14 08:53:48;;;;;;;5.53;3.70;;;1.10;99.90;;;;;;4962342;28;20183;-74
2022/12/14 08:56:21;;;;;;;5.43;3.90;;;1.10;99.90;;;;;;4974713;28;20275;-75
2022/12/14 08:58:47;;;;;;;6.00;4.00;;;1.40;99.90;;;;;;4961098;28;20203;-74
2022/12/14 09:01:18;;;;;;;5.80;3.60;;;1.20;99.90;;;;;;4965344;28;20180;-74
2022/12/14 09:03:47;;;;;;;6.20;4.07;;;1.20;99.90;;;;;;4957809;28;20204;-75
2022/12/14 09:06:17;;;;;;;6.77;4.53;;;1.20;99.90;;;;;;4946699;29;20185;-74
2022/12/14 09:08:43;;;;;;;5.33;3.60;;;1.30;99.90;;;;;;4969208;28;20207;-75
2022/12/14 09:11:13;;;;;;;8.00;5.13;;;1.20;99.90;;;;;;4961088;28;20214;-75
2022/12/14 09:13:42;;;;;;;8.33;5.10;;;1.20;99.90;;;;;;4958534;28;20236;-75
2022/12/14 09:16:13;;;;;;;7.03;4.70;;;1.20;99.90;;;;;;4961324;28;20204;-74
2022/12/14 09:18:39;;;;;;;5.20;4.10;;;1.20;99.90;;;;;;4945306;28;20263;-74
2022/12/14 09:21:05;;;;;;;8.27;4.50;;;1.20;99.90;;;;;;4966508;28;20191;-74
2022/12/14 09:23:34;;;;;;;6.47;4.03;;;1.20;99.90;;;;;;4973993;28;20176;-74
2022/12/14 09:26:10;;;;;;;5.17;3.67;;;1.20;99.90;;;;;;4977690;28;20384;-74
2022/12/14 09:28:40;;;;;;;5.33;3.50;;;1.20;99.90;;;;;;4953045;28;20183;-75
2022/12/14 09:31:09;;;;;;;5.13;3.80;;;1.20;99.90;;;;;;4971442;28;20238;-74
2022/12/14 09:33:38;;;;;;;5.87;3.83;;;1.20;99.90;;;;;;4963021;28;20184;-74
2022/12/14 09:36:07;;;;;;;5.00;3.70;;;1.30;99.90;;;;;;4972735;28;20187;-74
2022/12/14 09:38:38;;;;;;;4.43;3.40;;;1.30;99.90;;;;;;4961687;28;20288;-74
2022/12/14 09:41:06;;;;;;;5.57;3.90;;;1.30;99.90;;;;;;4958610;28;20283;-75
2022/12/14 09:43:37;;;;;;;4.90;3.73;;;1.30;99.90;;;;;;4961331;28;20176;-75
2022/12/14 09:46:15;;;;;;;5.20;3.73;;;1.40;99.90;;;;;;4961897;28;20246;-75
2022/12/14 09:48:41;;;;;;;6.03;4.07;;;1.30;99.90;;;;;;4955345;28;20190;-73
2022/12/14 09:51:18;;;;;;;5.10;3.70;;;1.20;99.90;;;;;;4971228;28;20330;-73
2022/12/14 09:53:49;;;;;;;6.20;4.30;;;1.20;99.90;;;;;;4969891;28;20188;-73
2022/12/14 09:56:19;;;;;;;5.40;4.00;;;1.20;99.90;;;;;;4955413;28;20228;-73
2022/12/14 09:58:58;;;;;;;6.23;4.23;;;1.20;99.90;;;;;;4967776;28;20480;-73
2022/12/14 10:01:54;;;;;;;5.43;4.10;;;1.20;99.90;;;;;;4966032;28;20179;-73
2022/12/14 10:04:49;;;;;;;5.37;3.87;;;1.20;99.90;;;;;;4964193;28;20183;-74
2022/12/14 10:07:31;;;;;;;5.20;3.63;;;1.20;99.90;;;;;;4920184;28;20279;-73
2022/12/14 10:10:09;;;;;;;5.57;3.80;;;1.20;99.90;;;;;;4965915;28;20290;-73
2022/12/14 10:12:45;;;;;;;4.83;3.73;;;1.20;99.90;;;;;;4966849;28;20279;-73
2022/12/14 10:15:22;;;;;;;6.17;4.07;;;1.20;99.90;;;;;;4967272;28;20192;-73
2022/12/14 10:18:06;;;;;;;5.63;3.40;;;1.20;99.90;;;;;;4968456;28;20259;-74
2022/12/14 10:21:01;;;;;;;5.67;4.17;;;1.40;99.90;;;;;;4957148;28;20179;-73
2022/12/14 10:23:30;;;;;;;5.67;3.80;;;1.30;99.90;;;;;;4955816;28;20179;-73
2022/12/14 10:26:13;;;;;;;5.83;4.10;;;1.30;99.90;;;;;;4961787;28;20282;-74
2022/12/14 10:28:52;;;;;;;5.70;4.10;;;1.30;99.90;;;;;;4959704;28;20202;-74
2022/12/14 10:31:50;;;;;;;6.47;3.80;;;1.20;99.90;;;;;;4961603;28;20185;-74
2022/12/14 10:34:23;;;;;;;5.13;3.67;;;1.20;99.90;;;;;;4958514;28;20184;-74
2022/12/14 10:37:00;;;;;;;6.33;3.70;;;1.30;99.90;;;;;;4958187;28;20196;-74
2022/12/14 10:40:04;;;;;;;7.40;4.10;;;1.20;99.90;;;;;;4958670;28;20211;-74
2022/12/14 10:43:10;;;;;;;6.07;4.03;;;1.20;99.90;;;;;;4955714;28;20192;-74
2022/12/14 10:45:40;;;;;;;5.57;4.30;;;1.20;99.90;;;;;;4953189;28;20173;-73
2022/12/14 10:48:23;;;;;;;5.40;3.87;;;1.20;99.90;;;;;;4965728;28;20199;-73
2022/12/14 10:51:13;;;;;;;6.10;4.30;;;1.20;99.90;;;;;;4964617;28;20239;-74
2022/12/14 10:54:02;;;;;;;6.13;4.20;;;1.20;99.90;;;;;;4959514;28;20184;-74
2022/12/14 10:56:31;;;;;;;5.33;3.97;;;1.20;99.90;;;;;;4962696;28;20272;-74
2022/12/14 10:59:37;;;;;;;5.53;4.17;;;1.20;99.90;;;;;;4955896;28;20204;-74
2022/12/14 11:02:07;;;;;;;7.83;4.27;;;1.20;99.90;;;;;;4915908;29;20306;-74
2022/12/14 11:04:35;;;;;;;5.33;3.97;;;1.10;99.90;;;;;;4952113;28;20316;-74
2022/12/14 11:07:06;;;;;;;5.90;4.40;;;1.10;99.90;;;;;;4954937;28;20180;-74
2022/12/14 11:09:32;;;;;;;4.73;3.70;;;1.10;99.90;;;;;;4957993;28;20238;-73
2022/12/14 11:12:22;;;;;;;5.97;4.27;;;1.10;99.90;;;;;;4960549;28;20221;-74
2022/12/14 11:14:58;;;;;;;7.27;5.10;;;1.10;99.90;;;;;;4960408;28;20176;-74
2022/12/14 11:17:38;;;;;;;8.40;5.30;;;1.10;99.90;;;;;;4965975;28;20238;-75
2022/12/14 11:20:14;;;;;;;6.60;4.53;;;1.10;99.90;;;;;;4968449;28;20186;-74
2022/12/14 11:22:48;;;;;;;5.90;4.17;;;1.00;99.90;;;;;;4964142;28;20187;-73
2022/12/14 11:25:35;;;;;;;6.07;4.23;;;1.00;99.90;;;;;;4960702;28;20200;-73
2022/12/14 11:28:25;;;;;;;6.13;4.60;;;1.00;99.90;;;;;;4963952;28;20192;-74
2022/12/14 11:31:04;;;;;;;5.40;4.10;;;1.00;99.90;;;;;;4957807;28;20180;-74
2022/12/14 11:33:40;;;;;;;5.30;3.90;;;1.00;99.90;;;;;;4966795;28;20187;-74
2022/12/14 11:36:22;;;;;;;6.93;4.53;;;1.00;99.90;;;;;;4964096;28;20341;-72
2022/12/14 11:38:56;;;;;;;8.33;5.23;;;1.00;99.90;;;;;;4957931;28;20204;-74
2022/12/14 11:41:22;;;;;;;5.73;4.20;;;0.90;99.90;;;;;;4966744;28;20192;-75
2022/12/14 11:44:21;;;;;;;6.50;4.53;;;1.00;99.90;;;;;;4959857;28;20390;-75
2022/12/14 11:46:59;;;;;;;5.77;4.10;;;1.00;99.90;;;;;;4967153;28;20192;-75
2022/12/14 11:49:44;;;;;;;5.23;3.60;;;1.00;99.90;;;;;;4960140;28;20176;-73
2022/12/14 11:52:13;;;;;;;4.67;3.43;;;0.90;99.90;;;;;;4960439;28;20187;-74
2022/12/14 11:54:41;;;;;;;4.60;3.43;;;1.00;99.90;;;;;;4958782;28;20207;-74
2022/12/14 11:57:13;;;;;;;4.63;3.53;;;0.90;99.90;;;;;;4959099;28;20255;-73
2022/12/14 11:59:46;;;;;;;5.83;4.30;;;1.00;99.90;;;;;;4957166;28;20211;-74
2022/12/14 12:02:34;;;;;;;5.80;3.70;;;1.00;99.90;;;;;;4970810;28;20294;-74
2022/12/14 12:05:07;;;;;;;4.27;3.37;;;1.00;99.90;;;;;;4964504;28;20234;-73
2022/12/14 12:07:42;;;;;;;6.20;4.10;;;1.00;99.90;;;;;;4965485;28;20179;-74
2022/12/14 12:10:22;;;;;;;5.93;3.63;;;1.10;99.90;;;;;;4960332;28;20232;-74
2022/12/14 12:12:54;;;;;;;5.10;3.77;;;1.10;99.90;;;;;;4963559;28;20183;-73
2022/12/14 12:15:34;;;;;;;6.43;4.23;;;1.10;99.90;;;;;;4955224;28;20315;-74
2022/12/14 12:18:15;;;;;;;5.87;3.83;;;1.10;99.90;;;;;;4980805;28;20199;-74
2022/12/14 12:21:05;;;;;;;4.77;3.40;;;1.20;99.90;;;;;;4972463;28;20209;-73
2022/12/14 12:23:42;;;;;;;5.33;3.50;;;1.20;99.90;;;;;;4917230;28;20224;-73
2022/12/14 12:26:31;;;;;;;5.97;3.60;;;1.20;99.90;;;;;;4961781;28;20244;-73
2022/12/14 12:29:12;;;;;;;4.93;3.50;;;1.20;99.90;;;;;;4964141;28;20195;-73
2022/12/14 12:31:45;;;;;;;6.00;3.83;;;1.20;99.90;;;;;;4957408;28;20238;-74
2022/12/14 12:34:21;;;;;;;6.07;4.37;;;1.20;99.90;;;;;;4970072;28;20183;-73
2022/12/14 12:36:48;;;;;;;6.10;4.17;;;1.30;99.90;;;;;;4971676;28;20183;-74
2022/12/14 12:39:15;;;;;;;5.53;3.97;;;1.30;99.90;;;;;;4961190;28;20218;-74
2022/12/14 12:42:10;;;;;;;7.03;4.37;;;1.30;99.90;;;;;;4962640;28;20430;-73
2022/12/14 12:44:57;;;;;;;5.73;4.07;;;1.40;99.90;;;;;;4936965;28;20251;-73
2022/12/14 12:47:34;;;;;;;6.77;4.30;;;1.30;99.90;;;;;;4952154;28;20180;-74
2022/12/14 12:50:03;;;;;;;6.00;4.60;;;1.30;99.90;;;;;;4965245;28;20204;-73
2022/12/14 12:52:44;;;;;;;5.77;4.13;;;1.30;99.90;;;;;;4963478;28;20195;-74
2022/12/14 12:55:15;;;;;;;6.33;4.00;;;1.30;99.90;;;;;;4961980;28;20176;-74
2022/12/14 12:57:46;;;;;;;5.40;3.90;;;1.30;99.90;;;;;;4957241;28;20207;-74
2022/12/14 13:00:20;;;;;;;5.87;3.97;;;1.30;99.90;;;;;;4961093;28;20184;-74
2022/12/14 13:02:50;;;;;;;6.10;3.80;;;1.30;99.90;;;;;;4964038;28;20215;-75
2022/12/14 13:05:23;;;;;;;5.07;3.87;;;1.30;99.90;;;;;;4965365;28;20191;-74
2022/12/14 13:07:57;;;;;;;6.70;4.47;;;1.40;99.90;;;;;;4963862;28;20227;-74
2022/12/14 13:10:26;;;;;;;5.30;4.00;;;1.40;99.90;;;;;;4968027;28;20183;-74
2022/12/14 13:13:08;;;;;;;6.47;4.37;;;1.40;99.90;;;;;;4973674;28;20187;-74
2022/12/14 13:15:43;;;;;;;5.77;4.10;;;1.40;99.90;;;;;;4960301;28;20215;-74
2022/12/14 13:18:41;;;;;;;7.07;4.20;;;1.40;99.90;;;;;;4964280;28;20199;-74
2022/12/14 13:21:36;;;;;;;5.33;4.07;;;1.40;99.90;;;;;;4963618;28;20275;-74
2022/12/14 13:24:05;;;;;;;5.43;3.80;;;1.40;99.90;;;;;;4967553;28;20212;-74
2022/12/14 13:26:50;;;;;;;5.90;3.60;;;1.40;99.90;;;;;;4960866;28;20280;-75
2022/12/14 13:29:21;;;;;;;5.87;3.80;;;1.50;99.90;;;;;;4970547;28;20191;-73
2022/12/14 13:32:24;;;;;;;5.63;3.80;;;1.50;99.90;;;;;;4958819;28;20199;-74
2022/12/14 13:35:34;;;;;;;5.23;3.83;;;1.50;99.90;;;;;;4965528;28;20203;-74
2022/12/14 13:38:08;;;;;;;4.83;3.70;;;1.50;99.90;;;;;;4940029;28;20314;-73
2022/12/14 13:40:55;;;;;;;5.73;3.77;;;1.50;99.90;;;;;;4969521;28;20195;-74
2022/12/14 13:43:42;;;;;;;6.87;3.70;;;1.50;99.90;;;;;;4958543;28;20168;-74
2022/12/14 13:46:24;;;;;;;4.03;3.17;;;1.60;99.90;;;;;;4971168;28;20200;-75
2022/12/14 13:48:57;;;;;;;5.40;3.27;;;1.60;99.90;;;;;;4973753;28;20263;-74
2022/12/14 13:51:50;;;;;;;5.50;3.77;;;1.60;99.90;;;;;;4958850;28;20185;-75